Overview Statistics Trail Chart Weather Telemetry Raw packets
 

This is the latest recevied weather packets stored in our database for station/object K5OLV. If no packets are shown the sender has not sent any weather packets the latest 10 day(s).

<< 70 71 72 73 74 75 76 >>
Time Temp. Humidity Pressure Rain* Wind** Luminosity Snow
1788117801 27.22° C 76% 1018.8 hPa 0 mm - 157 W/m² -
1788117497 28.89° C 72% 1018.9 hPa 0 mm - 153 W/m² -
1788117196 28.89° C 70% 1019.1 hPa 0 mm - 754 W/m² -
1788116893 28.33° C 72% 1019.1 hPa 0 mm - 753 W/m² -
1788116592 28.33° C 71% 1019.3 hPa 0 mm - 766 W/m² -
1788116291 27.78° C 73% 1019.4 hPa 0 mm - 373 W/m² -
1788115987 30° C 70% 1019.7 hPa 0 mm - 147 W/m² -
1788115682 30° C 66% 1019.2 hPa 0 mm - 721 W/m² -
1788115381 28.89° C 71% 1019.7 hPa 0 mm - 679 W/m² -
1788115075 28.89° C 70% 1019.4 hPa 0 mm - 728 W/m² -
1788114770 30° C 68% 1019.7 hPa 0 mm - 688 W/m² -
1788114465 30° C 68% 1019.8 hPa 0 mm - 445 W/m² -
1788114161 29.44° C 68% 1019.7 hPa 0 mm - 740 W/m² -
1788113864 28.89° C 71% 1019.8 hPa 0 mm - 714 W/m² -
1788113552 28.89° C 71% 1019.6 hPa 0 mm - 752 W/m² -
1788113251 28.89° C 69% 1020 hPa 0 mm - 768 W/m² -
1788112946 28.33° C 73% 1020.3 hPa 0 mm - 775 W/m² -
1788112640 28.33° C 72% 1020 hPa 0 mm - 661 W/m² -
1788112335 28.33° C 72% 1020 hPa 0 mm - 170 W/m² -
1788112030 28.33° C 74% 1020.1 hPa 0 mm - 519 W/m² -
1788111726 28.33° C 72% 1020.4 hPa 0 mm - 649 W/m² -
1788111425 28.33° C 73% 1020.2 hPa 0 mm - 727 W/m² -
1788111121 29.44° C 70% 1020.4 hPa 0 mm - 206 W/m² -
1788110818 28.89° C 73% 1020.3 hPa 0 mm - 471 W/m² -
1788110514 28.89° C 73% 1020.5 hPa 0 mm - 719 W/m² -

* Rain latest hour (hover to see other rain measurements)
** Current wind speed in m/s (hover to see current wind gust speed)